sensor_id;sensor_type;location;lat;lon;timestamp;pressure;altitude;pressure_sealevel;temperature;humidity
45793;BME280;31495;42.740;22.908;2023-04-29T00:00:24;93163.63;;;4.79;55.07
45793;BME280;31495;42.740;22.908;2023-04-29T00:01:23;93168.41;;;4.82;55.21
45793;BME280;31495;42.740;22.908;2023-04-29T00:02:23;93160.59;;;4.75;54.97
45793;BME280;31495;42.740;22.908;2023-04-29T00:03:22;93154.69;;;4.75;55.00
45793;BME280;31495;42.740;22.908;2023-04-29T00:04:22;93142.66;;;4.75;54.96
45793;BME280;31495;42.740;22.908;2023-04-29T00:05:22;93159.91;;;4.82;54.84
45793;BME280;31495;42.740;22.908;2023-04-29T00:06:21;93166.91;;;4.88;55.23
45793;BME280;31495;42.740;22.908;2023-04-29T00:07:21;93158.31;;;4.81;55.59
45793;BME280;31495;42.740;22.908;2023-04-29T00:08:21;93155.66;;;4.74;55.49
45793;BME280;31495;42.740;22.908;2023-04-29T00:09:20;93156.78;;;4.71;55.70
45793;BME280;31495;42.740;22.908;2023-04-29T00:10:20;93159.81;;;4.75;55.57
45793;BME280;31495;42.740;22.908;2023-04-29T00:11:19;93160.25;;;4.78;55.30
45793;BME280;31495;42.740;22.908;2023-04-29T00:12:19;93171.84;;;4.74;55.38
45793;BME280;31495;42.740;22.908;2023-04-29T00:13:19;93166.53;;;4.76;55.24
45793;BME280;31495;42.740;22.908;2023-04-29T00:14:19;93167.94;;;4.78;54.94
45793;BME280;31495;42.740;22.908;2023-04-29T00:15:19;93144.13;;;4.55;54.99
45793;BME280;31495;42.740;22.908;2023-04-29T00:16:18;93149.91;;;4.72;55.17
45793;BME280;31495;42.740;22.908;2023-04-29T00:17:18;93154.00;;;4.81;54.69
45793;BME280;31495;42.740;22.908;2023-04-29T00:18:18;93168.84;;;4.86;55.17
45793;BME280;31495;42.740;22.908;2023-04-29T00:19:18;93157.41;;;4.73;55.05
45793;BME280;31495;42.740;22.908;2023-04-29T00:20:17;93152.78;;;4.69;54.94
45793;BME280;31495;42.740;22.908;2023-04-29T00:21:17;93162.38;;;4.75;55.10
45793;BME280;31495;42.740;22.908;2023-04-29T00:22:16;93137.66;;;4.59;55.27
45793;BME280;31495;42.740;22.908;2023-04-29T00:23:15;93166.69;;;4.74;55.38
45793;BME280;31495;42.740;22.908;2023-04-29T00:24:15;93141.38;;;4.56;55.42
45793;BME280;31495;42.740;22.908;2023-04-29T00:25:14;93148.38;;;4.63;55.21
45793;BME280;31495;42.740;22.908;2023-04-29T00:26:15;93146.16;;;4.59;55.63
45793;BME280;31495;42.740;22.908;2023-04-29T00:27:15;93165.84;;;4.59;55.94
45793;BME280;31495;42.740;22.908;2023-04-29T00:28:15;93147.88;;;4.44;56.15
45793;BME280;31495;42.740;22.908;2023-04-29T00:29:15;93160.00;;;4.50;55.74
45793;BME280;31495;42.740;22.908;2023-04-29T00:30:14;93142.13;;;4.42;55.99
45793;BME280;31495;42.740;22.908;2023-04-29T00:31:14;93146.47;;;4.41;55.76
45793;BME280;31495;42.740;22.908;2023-04-29T00:32:14;93131.66;;;4.29;55.97
45793;BME280;31495;42.740;22.908;2023-04-29T00:33:13;93167.50;;;4.52;55.93
45793;BME280;31495;42.740;22.908;2023-04-29T00:34:12;93157.59;;;4.49;55.76
45793;BME280;31495;42.740;22.908;2023-04-29T00:35:12;93157.16;;;4.45;55.92
45793;BME280;31495;42.740;22.908;2023-04-29T00:36:12;93092.81;;;4.02;56.26
45793;BME280;31495;42.740;22.908;2023-04-29T00:37:11;93164.78;;;4.53;56.09
45793;BME280;31495;42.740;22.908;2023-04-29T00:38:11;93148.84;;;4.43;55.73
45793;BME280;31495;42.740;22.908;2023-04-29T00:39:10;93161.50;;;4.45;55.71
45793;BME280;31495;42.740;22.908;2023-04-29T00:40:12;93158.13;;;4.44;55.81
45793;BME280;31495;42.740;22.908;2023-04-29T00:41:15;93139.28;;;4.37;55.68
45793;BME280;31495;42.740;22.908;2023-04-29T00:42:15;93162.22;;;4.53;55.83
45793;BME280;31495;42.740;22.908;2023-04-29T00:43:15;93165.97;;;4.66;55.70
45793;BME280;31495;42.740;22.908;2023-04-29T00:44:14;93129.94;;;4.44;55.29
45793;BME280;31495;42.740;22.908;2023-04-29T00:45:14;93161.25;;;4.54;56.06
45793;BME280;31495;42.740;22.908;2023-04-29T00:46:14;93141.09;;;4.51;55.72
45793;BME280;31495;42.740;22.908;2023-04-29T00:47:14;93148.66;;;4.68;55.46
45793;BME280;31495;42.740;22.908;2023-04-29T00:48:14;93132.09;;;4.55;55.60
45793;BME280;31495;42.740;22.908;2023-04-29T00:49:14;93142.00;;;4.58;55.83
45793;BME280;31495;42.740;22.908;2023-04-29T00:50:13;93145.34;;;4.59;55.81
45793;BME280;31495;42.740;22.908;2023-04-29T00:51:13;93115.72;;;4.41;56.41
45793;BME280;31495;42.740;22.908;2023-04-29T00:52:15;93131.53;;;4.45;56.62
45793;BME280;31495;42.740;22.908;2023-04-29T00:53:16;93134.34;;;4.35;56.59
45793;BME280;31495;42.740;22.908;2023-04-29T00:54:16;93131.59;;;4.37;56.20
45793;BME280;31495;42.740;22.908;2023-04-29T00:55:16;93105.66;;;4.17;56.16
45793;BME280;31495;42.740;22.908;2023-04-29T00:56:17;93123.97;;;4.29;56.33
45793;BME280;31495;42.740;22.908;2023-04-29T00:57:19;93090.63;;;4.14;55.79
45793;BME280;31495;42.740;22.908;2023-04-29T00:58:19;93118.19;;;4.35;56.03
45793;BME280;31495;42.740;22.908;2023-04-29T00:59:19;93142.41;;;4.47;56.02
45793;BME280;31495;42.740;22.908;2023-04-29T01:00:19;93115.97;;;4.32;56.05
45793;BME280;31495;42.740;22.908;2023-04-29T01:01:19;93110.84;;;4.32;55.95
45793;BME280;31495;42.740;22.908;2023-04-29T01:02:20;93124.53;;;4.39;55.97
45793;BME280;31495;42.740;22.908;2023-04-29T01:03:20;93149.13;;;4.48;55.60
45793;BME280;31495;42.740;22.908;2023-04-29T01:04:20;93129.09;;;4.52;55.58
45793;BME280;31495;42.740;22.908;2023-04-29T01:05:20;93117.13;;;4.44;55.32
45793;BME280;31495;42.740;22.908;2023-04-29T01:07:36;93138.53;;;4.51;56.02
45793;BME280;31495;42.740;22.908;2023-04-29T01:11:27;93137.00;;;4.42;55.72
45793;BME280;31495;42.740;22.908;2023-04-29T01:13:31;93126.38;;;4.30;56.10
45793;BME280;31495;42.740;22.908;2023-04-29T01:14:33;93129.38;;;4.34;56.36
45793;BME280;31495;42.740;22.908;2023-04-29T01:16:55;93113.72;;;4.52;56.06
45793;BME280;31495;42.740;22.908;2023-04-29T01:18:10;93127.94;;;4.54;56.30
45793;BME280;31495;42.740;22.908;2023-04-29T01:19:43;93126.28;;;4.62;56.33
45793;BME280;31495;42.740;22.908;2023-04-29T01:20:45;93103.00;;;4.48;56.64
45793;BME280;31495;42.740;22.908;2023-04-29T01:21:46;93108.41;;;4.53;56.64
45793;BME280;31495;42.740;22.908;2023-04-29T01:22:49;93093.91;;;4.46;56.91
45793;BME280;31495;42.740;22.908;2023-04-29T01:23:48;93077.19;;;4.35;56.13
45793;BME280;31495;42.740;22.908;2023-04-29T01:24:54;93121.78;;;4.64;55.75
45793;BME280;31495;42.740;22.908;2023-04-29T01:25:53;93104.97;;;4.46;56.07
45793;BME280;31495;42.740;22.908;2023-04-29T01:27:01;93097.63;;;4.43;56.27
45793;BME280;31495;42.740;22.908;2023-04-29T01:29:37;93118.84;;;4.52;55.91
45793;BME280;31495;42.740;22.908;2023-04-29T01:30:49;93112.00;;;4.44;55.72
45793;BME280;31495;42.740;22.908;2023-04-29T01:32:04;93103.59;;;4.35;55.88
45793;BME280;31495;42.740;22.908;2023-04-29T01:34:33;93106.69;;;4.08;56.62
45793;BME280;31495;42.740;22.908;2023-04-29T01:39:27;93119.97;;;4.26;56.83
45793;BME280;31495;42.740;22.908;2023-04-29T01:40:37;93094.66;;;4.08;56.85
45793;BME280;31495;42.740;22.908;2023-04-29T01:41:49;93104.22;;;4.14;56.87
45793;BME280;31495;42.740;22.908;2023-04-29T01:43:01;93115.09;;;4.16;57.38
45793;BME280;31495;42.740;22.908;2023-04-29T01:44:02;93108.63;;;4.05;57.56
45793;BME280;31495;42.740;22.908;2023-04-29T01:45:05;93113.91;;;4.04;57.72
45793;BME280;31495;42.740;22.908;2023-04-29T01:46:08;93118.13;;;3.97;57.65
45793;BME280;31495;42.740;22.908;2023-04-29T01:47:12;93108.56;;;3.91;57.73
45793;BME280;31495;42.740;22.908;2023-04-29T01:48:12;93120.00;;;4.03;57.63
45793;BME280;31495;42.740;22.908;2023-04-29T01:49:12;93110.69;;;4.10;57.43
45793;BME280;31495;42.740;22.908;2023-04-29T01:50:11;93074.28;;;3.92;57.14
45793;BME280;31495;42.740;22.908;2023-04-29T01:51:11;93099.00;;;4.08;57.07
45793;BME280;31495;42.740;22.908;2023-04-29T01:52:10;93119.59;;;4.14;57.18
45793;BME280;31495;42.740;22.908;2023-04-29T01:53:10;93107.19;;;4.03;57.32
45793;BME280;31495;42.740;22.908;2023-04-29T01:54:10;93119.38;;;4.01;57.58
45793;BME280;31495;42.740;22.908;2023-04-29T01:55:09;93105.84;;;3.92;57.95
45793;BME280;31495;42.740;22.908;2023-04-29T01:56:09;93088.22;;;3.66;58.12
45793;BME280;31495;42.740;22.908;2023-04-29T01:57:08;93121.06;;;3.85;58.22
45793;BME280;31495;42.740;22.908;2023-04-29T01:58:09;93113.13;;;3.72;58.66
45793;BME280;31495;42.740;22.908;2023-04-29T01:59:09;93112.97;;;3.74;58.42
45793;BME280;31495;42.740;22.908;2023-04-29T02:00:09;93106.25;;;3.73;58.31
45793;BME280;31495;42.740;22.908;2023-04-29T02:01:10;93116.56;;;3.88;58.02
45793;BME280;31495;42.740;22.908;2023-04-29T02:02:10;93100.03;;;3.67;58.00
45793;BME280;31495;42.740;22.908;2023-04-29T02:03:09;93100.22;;;3.65;57.78
45793;BME280;31495;42.740;22.908;2023-04-29T02:04:09;93128.34;;;3.65;58.12
45793;BME280;31495;42.740;22.908;2023-04-29T02:05:08;93102.25;;;3.39;58.55
45793;BME280;31495;42.740;22.908;2023-04-29T02:06:08;93136.06;;;3.57;58.73
45793;BME280;31495;42.740;22.908;2023-04-29T02:07:08;93136.06;;;3.57;58.91
45793;BME280;31495;42.740;22.908;2023-04-29T02:08:07;93101.59;;;3.45;58.71
45793;BME280;31495;42.740;22.908;2023-04-29T02:09:07;93138.41;;;3.67;58.99
45793;BME280;31495;42.740;22.908;2023-04-29T02:10:06;93129.50;;;3.63;58.74
45793;BME280;31495;42.740;22.908;2023-04-29T02:11:06;93119.22;;;3.71;58.48
45793;BME280;31495;42.740;22.908;2023-04-29T02:12:05;93122.53;;;3.80;58.22
45793;BME280;31495;42.740;22.908;2023-04-29T02:13:05;93097.81;;;3.64;58.27
45793;BME280;31495;42.740;22.908;2023-04-29T02:14:05;93086.50;;;3.58;58.43
45793;BME280;31495;42.740;22.908;2023-04-29T02:15:05;93118.41;;;3.79;58.53
45793;BME280;31495;42.740;22.908;2023-04-29T02:16:09;93122.19;;;3.83;58.41
45793;BME280;31495;42.740;22.908;2023-04-29T02:17:09;93127.09;;;3.93;58.00
45793;BME280;31495;42.740;22.908;2023-04-29T02:18:09;93126.47;;;3.91;58.12
45793;BME280;31495;42.740;22.908;2023-04-29T02:19:08;93120.53;;;3.90;58.29
45793;BME280;31495;42.740;22.908;2023-04-29T02:20:08;93092.91;;;3.62;58.39
45793;BME280;31495;42.740;22.908;2023-04-29T02:21:08;93107.38;;;3.70;58.66
45793;BME280;31495;42.740;22.908;2023-04-29T02:22:08;93117.94;;;3.67;58.57
45793;BME280;31495;42.740;22.908;2023-04-29T02:23:10;93103.47;;;3.59;58.71
45793;BME280;31495;42.740;22.908;2023-04-29T02:24:09;93117.56;;;3.78;58.65
45793;BME280;31495;42.740;22.908;2023-04-29T02:25:09;93113.13;;;3.72;58.52
45793;BME280;31495;42.740;22.908;2023-04-29T02:26:09;93125.88;;;3.80;58.32
45793;BME280;31495;42.740;22.908;2023-04-29T02:27:09;93109.44;;;3.75;58.40
45793;BME280;31495;42.740;22.908;2023-04-29T02:28:08;93110.94;;;3.69;58.50
45793;BME280;31495;42.740;22.908;2023-04-29T02:29:08;93116.63;;;3.79;58.48
45793;BME280;31495;42.740;22.908;2023-04-29T02:30:08;93114.84;;;3.80;58.45
45793;BME280;31495;42.740;22.908;2023-04-29T02:31:08;93085.97;;;3.71;58.05
45793;BME280;31495;42.740;22.908;2023-04-29T02:32:07;93099.38;;;3.73;58.23
45793;BME280;31495;42.740;22.908;2023-04-29T02:33:07;93114.97;;;3.86;58.36
45793;BME280;31495;42.740;22.908;2023-04-29T02:34:06;93109.72;;;3.80;58.30
45793;BME280;31495;42.740;22.908;2023-04-29T02:35:06;93106.66;;;3.84;58.10
45793;BME280;31495;42.740;22.908;2023-04-29T02:36:06;93114.81;;;3.88;58.15
45793;BME280;31495;42.740;22.908;2023-04-29T02:37:06;93100.53;;;3.71;58.41
45793;BME280;31495;42.740;22.908;2023-04-29T02:38:05;93102.81;;;3.57;58.81
45793;BME280;31495;42.740;22.908;2023-04-29T02:39:05;93105.91;;;3.53;58.96
45793;BME280;31495;42.740;22.908;2023-04-29T02:40:05;93122.50;;;3.57;59.35
45793;BME280;31495;42.740;22.908;2023-04-29T02:41:05;93119.09;;;3.64;59.25
45793;BME280;31495;42.740;22.908;2023-04-29T02:42:04;93116.25;;;3.59;58.72
45793;BME280;31495;42.740;22.908;2023-04-29T02:43:04;93110.66;;;3.56;58.76
45793;BME280;31495;42.740;22.908;2023-04-29T02:44:03;93124.19;;;3.73;58.44
45793;BME280;31495;42.740;22.908;2023-04-29T02:45:03;93103.91;;;3.63;58.24
45793;BME280;31495;42.740;22.908;2023-04-29T02:46:03;93106.88;;;3.75;58.48
45793;BME280;31495;42.740;22.908;2023-04-29T02:47:03;93113.31;;;3.71;58.27
45793;BME280;31495;42.740;22.908;2023-04-29T02:48:02;93126.53;;;3.82;58.28
45793;BME280;31495;42.740;22.908;2023-04-29T02:49:02;93107.56;;;3.68;58.26
45793;BME280;31495;42.740;22.908;2023-04-29T02:50:02;93129.75;;;3.76;57.93
45793;BME280;31495;42.740;22.908;2023-04-29T02:51:03;93106.47;;;3.63;57.98
45793;BME280;31495;42.740;22.908;2023-04-29T02:52:02;93101.97;;;3.65;58.16
45793;BME280;31495;42.740;22.908;2023-04-29T02:53:03;93115.41;;;3.67;58.15
45793;BME280;31495;42.740;22.908;2023-04-29T02:54:02;93126.28;;;3.69;58.49
45793;BME280;31495;42.740;22.908;2023-04-29T02:55:02;93128.84;;;3.69;58.38
45793;BME280;31495;42.740;22.908;2023-04-29T02:56:02;93125.00;;;3.65;58.33
45793;BME280;31495;42.740;22.908;2023-04-29T02:57:02;93129.00;;;3.67;58.48
45793;BME280;31495;42.740;22.908;2023-04-29T02:58:01;93107.97;;;3.49;58.55
45793;BME280;31495;42.740;22.908;2023-04-29T02:59:02;93115.50;;;3.42;58.75
45793;BME280;31495;42.740;22.908;2023-04-29T03:00:01;93122.44;;;3.34;59.38
45793;BME280;31495;42.740;22.908;2023-04-29T03:01:02;93141.09;;;3.42;59.20
45793;BME280;31495;42.740;22.908;2023-04-29T03:02:02;93101.91;;;3.10;59.77
45793;BME280;31495;42.740;22.908;2023-04-29T03:03:02;93121.47;;;3.35;59.61
45793;BME280;31495;42.740;22.908;2023-04-29T03:04:02;93142.38;;;3.46;59.51
45793;BME280;31495;42.740;22.908;2023-04-29T03:05:02;93119.84;;;3.42;59.45
45793;BME280;31495;42.740;22.908;2023-04-29T03:06:02;93113.16;;;3.33;59.57
45793;BME280;31495;42.740;22.908;2023-04-29T03:07:02;93123.69;;;3.38;59.54
45793;BME280;31495;42.740;22.908;2023-04-29T03:08:03;93130.91;;;3.26;59.44
45793;BME280;31495;42.740;22.908;2023-04-29T03:09:03;93158.25;;;3.25;59.88
45793;BME280;31495;42.740;22.908;2023-04-29T03:10:02;93137.66;;;3.19;60.02
45793;BME280;31495;42.740;22.908;2023-04-29T03:11:03;93144.72;;;3.17;60.50
45793;BME280;31495;42.740;22.908;2023-04-29T03:12:02;93139.09;;;3.13;60.76
45793;BME280;31495;42.740;22.908;2023-04-29T03:13:02;93123.03;;;2.96;60.98
45793;BME280;31495;42.740;22.908;2023-04-29T03:14:01;93149.16;;;3.15;60.45
45793;BME280;31495;42.740;22.908;2023-04-29T03:15:01;93154.44;;;3.13;60.72
45793;BME280;31495;42.740;22.908;2023-04-29T03:16:00;93154.63;;;3.03;61.00
45793;BME280;31495;42.740;22.908;2023-04-29T03:17:00;93141.53;;;2.98;60.94
45793;BME280;31495;42.740;22.908;2023-04-29T03:18:00;93155.09;;;3.15;60.93
45793;BME280;31495;42.740;22.908;2023-04-29T03:19:02;93144.06;;;3.15;61.02
45793;BME280;31495;42.740;22.908;2023-04-29T03:20:02;93131.28;;;3.15;60.84
45793;BME280;31495;42.740;22.908;2023-04-29T03:21:01;93152.19;;;3.26;61.38
45793;BME280;31495;42.740;22.908;2023-04-29T03:22:02;93137.34;;;3.22;61.14
45793;BME280;31495;42.740;22.908;2023-04-29T03:23:02;93152.34;;;3.25;61.24
45793;BME280;31495;42.740;22.908;2023-04-29T03:24:02;93143.09;;;3.16;61.37
45793;BME280;31495;42.740;22.908;2023-04-29T03:25:01;93141.50;;;3.15;61.83
45793;BME280;31495;42.740;22.908;2023-04-29T03:26:01;93146.28;;;3.18;61.54
45793;BME280;31495;42.740;22.908;2023-04-29T03:27:00;93158.88;;;3.27;61.43
45793;BME280;31495;42.740;22.908;2023-04-29T03:28:00;93118.03;;;3.11;61.06
45793;BME280;31495;42.740;22.908;2023-04-29T03:28:59;93113.38;;;3.15;60.92
45793;BME280;31495;42.740;22.908;2023-04-29T03:29:59;93129.31;;;3.33;60.57
45793;BME280;31495;42.740;22.908;2023-04-29T03:30:58;93125.63;;;3.27;60.57
45793;BME280;31495;42.740;22.908;2023-04-29T03:31:58;93132.69;;;3.25;59.59
45793;BME280;31495;42.740;22.908;2023-04-29T03:32:58;93140.63;;;3.39;59.25
45793;BME280;31495;42.740;22.908;2023-04-29T03:33:57;93140.97;;;3.36;59.63
45793;BME280;31495;42.740;22.908;2023-04-29T03:34:57;93131.91;;;3.25;59.93
45793;BME280;31495;42.740;22.908;2023-04-29T03:35:56;93158.38;;;3.40;60.25
45793;BME280;31495;42.740;22.908;2023-04-29T03:36:55;93148.03;;;3.25;60.68
45793;BME280;31495;42.740;22.908;2023-04-29T03:37:55;93142.44;;;3.30;60.67
45793;BME280;31495;42.740;22.908;2023-04-29T03:38:55;93142.56;;;3.37;60.99
45793;BME280;31495;42.740;22.908;2023-04-29T03:39:54;93150.50;;;3.50;60.64
45793;BME280;31495;42.740;22.908;2023-04-29T03:40:54;93148.41;;;3.54;60.45
45793;BME280;31495;42.740;22.908;2023-04-29T03:41:54;93148.06;;;3.57;60.04
45793;BME280;31495;42.740;22.908;2023-04-29T03:42:53;93144.41;;;3.59;60.51
45793;BME280;31495;42.740;22.908;2023-04-29T03:43:53;93145.97;;;3.60;59.76
45793;BME280;31495;42.740;22.908;2023-04-29T03:44:52;93152.84;;;3.60;60.09
45793;BME280;31495;42.740;22.908;2023-04-29T03:45:52;93147.44;;;3.55;60.09
45793;BME280;31495;42.740;22.908;2023-04-29T03:46:52;93139.47;;;3.49;60.02
45793;BME280;31495;42.740;22.908;2023-04-29T03:47:51;93151.91;;;3.61;59.79
45793;BME280;31495;42.740;22.908;2023-04-29T03:48:53;93114.56;;;3.43;59.90
45793;BME280;31495;42.740;22.908;2023-04-29T03:49:54;93141.66;;;3.61;59.85
45793;BME280;31495;42.740;22.908;2023-04-29T03:50:53;93141.97;;;3.66;59.69
45793;BME280;31495;42.740;22.908;2023-04-29T03:51:53;93156.94;;;3.77;59.51
45793;BME280;31495;42.740;22.908;2023-04-29T03:52:52;93118.97;;;3.58;59.24
45793;BME280;31495;42.740;22.908;2023-04-29T03:53:53;93156.59;;;3.80;59.52
45793;BME280;31495;42.740;22.908;2023-04-29T03:54:54;93152.91;;;3.83;59.56
45793;BME280;31495;42.740;22.908;2023-04-29T03:55:53;93148.56;;;3.83;59.13
45793;BME280;31495;42.740;22.908;2023-04-29T03:56:53;93145.69;;;3.86;59.18
45793;BME280;31495;42.740;22.908;2023-04-29T03:57:52;93134.38;;;3.81;59.15
45793;BME280;31495;42.740;22.908;2023-04-29T03:58:52;93136.56;;;3.92;59.04
45793;BME280;31495;42.740;22.908;2023-04-29T03:59:51;93154.38;;;4.09;58.86
45793;BME280;31495;42.740;22.908;2023-04-29T04:00:51;93126.59;;;3.97;58.87
45793;BME280;31495;42.740;22.908;2023-04-29T04:01:50;93126.72;;;4.04;59.11
45793;BME280;31495;42.740;22.908;2023-04-29T04:02:52;93127.84;;;4.01;59.06
45793;BME280;31495;42.740;22.908;2023-04-29T04:03:51;93146.91;;;4.22;58.72
45793;BME280;31495;42.740;22.908;2023-04-29T04:04:50;93137.19;;;4.17;58.69
45793;BME280;31495;42.740;22.908;2023-04-29T04:05:50;93123.38;;;4.03;59.03
45793;BME280;31495;42.740;22.908;2023-04-29T04:06:49;93140.31;;;4.04;59.36
45793;BME280;31495;42.740;22.908;2023-04-29T04:07:53;93139.13;;;4.15;59.08
45793;BME280;31495;42.740;22.908;2023-04-29T04:08:53;93148.16;;;4.26;59.91
45793;BME280;31495;42.740;22.908;2023-04-29T04:09:52;93145.16;;;4.22;60.29
45793;BME280;31495;42.740;22.908;2023-04-29T04:10:52;93143.03;;;4.26;60.24
45793;BME280;31495;42.740;22.908;2023-04-29T04:11:51;93136.41;;;4.17;60.71
45793;BME280;31495;42.740;22.908;2023-04-29T04:12:50;93129.56;;;4.09;60.78
45793;BME280;31495;42.740;22.908;2023-04-29T04:13:50;93132.50;;;4.21;60.20
45793;BME280;31495;42.740;22.908;2023-04-29T04:14:50;93131.56;;;4.22;60.03
45793;BME280;31495;42.740;22.908;2023-04-29T04:15:51;93134.06;;;4.30;59.49
45793;BME280;31495;42.740;22.908;2023-04-29T04:16:50;93147.34;;;4.49;59.14
45793;BME280;31495;42.740;22.908;2023-04-29T04:17:50;93112.41;;;4.33;59.06
45793;BME280;31495;42.740;22.908;2023-04-29T04:18:49;93133.16;;;4.46;58.99
45793;BME280;31495;42.740;22.908;2023-04-29T04:20:04;93138.88;;;4.48;59.31
45793;BME280;31495;42.740;22.908;2023-04-29T04:21:15;93141.38;;;4.56;59.26
45793;BME280;31495;42.740;22.908;2023-04-29T04:22:29;93075.09;;;4.15;59.05
45793;BME280;31495;42.740;22.908;2023-04-29T04:23:31;93102.38;;;4.31;59.25
45793;BME280;31495;42.740;22.908;2023-04-29T04:24:31;93068.28;;;4.08;59.52
45793;BME280;31495;42.740;22.908;2023-04-29T04:25:30;93160.03;;;4.65;59.14
45793;BME280;31495;42.740;22.908;2023-04-29T04:26:30;93162.44;;;4.67;58.89
45793;BME280;31495;42.740;22.908;2023-04-29T04:27:29;93138.47;;;4.59;58.72
45793;BME280;31495;42.740;22.908;2023-04-29T04:28:28;93124.25;;;4.34;58.95
45793;BME280;31495;42.740;22.908;2023-04-29T04:29:28;93138.03;;;4.56;59.19
45793;BME280;31495;42.740;22.908;2023-04-29T04:30:27;93149.28;;;4.70;58.86
45793;BME280;31495;42.740;22.908;2023-04-29T04:31:27;93145.69;;;4.79;58.57
45793;BME280;31495;42.740;22.908;2023-04-29T04:32:27;93146.72;;;4.70;58.76
45793;BME280;31495;42.740;22.908;2023-04-29T04:33:26;93151.22;;;4.68;58.97
45793;BME280;31495;42.740;22.908;2023-04-29T04:34:26;93156.03;;;4.86;59.03
45793;BME280;31495;42.740;22.908;2023-04-29T04:35:25;93153.41;;;4.94;58.26
45793;BME280;31495;42.740;22.908;2023-04-29T04:36:25;93136.03;;;4.81;57.98
45793;BME280;31495;42.740;22.908;2023-04-29T04:37:24;93145.88;;;4.92;57.84
45793;BME280;31495;42.740;22.908;2023-04-29T04:38:24;93151.88;;;5.00;57.68
45793;BME280;31495;42.740;22.908;2023-04-29T04:39:24;93145.53;;;4.95;57.65
45793;BME280;31495;42.740;22.908;2023-04-29T04:40:24;93150.41;;;5.05;57.73
45793;BME280;31495;42.740;22.908;2023-04-29T04:41:24;93145.53;;;5.10;57.85
45793;BME280;31495;42.740;22.908;2023-04-29T04:42:24;93129.06;;;5.05;57.88
45793;BME280;31495;42.740;22.908;2023-04-29T04:43:23;93154.03;;;5.26;58.23
45793;BME280;31495;42.740;22.908;2023-04-29T04:44:23;93117.06;;;5.05;58.25
45793;BME280;31495;42.740;22.908;2023-04-29T04:45:23;93107.34;;;5.15;57.41
45793;BME280;31495;42.740;22.908;2023-04-29T04:46:22;93156.31;;;5.50;56.70
45793;BME280;31495;42.740;22.908;2023-04-29T04:47:21;93152.38;;;5.48;56.64
45793;BME280;31495;42.740;22.908;2023-04-29T04:48:21;93156.16;;;5.52;56.81
45793;BME280;31495;42.740;22.908;2023-04-29T04:49:22;93151.09;;;5.59;55.96
45793;BME280;31495;42.740;22.908;2023-04-29T04:50:23;93134.22;;;5.49;55.47
45793;BME280;31495;42.740;22.908;2023-04-29T04:51:22;93135.63;;;5.52;55.59
45793;BME280;31495;42.740;22.908;2023-04-29T04:52:22;93085.28;;;5.21;55.39
45793;BME280;31495;42.740;22.908;2023-04-29T04:53:22;93141.66;;;5.59;55.30
45793;BME280;31495;42.740;22.908;2023-04-29T04:54:22;93126.69;;;5.48;55.40
45793;BME280;31495;42.740;22.908;2023-04-29T04:55:22;93161.09;;;5.68;55.48
45793;BME280;31495;42.740;22.908;2023-04-29T04:56:22;93145.63;;;5.62;56.08
45793;BME280;31495;42.740;22.908;2023-04-29T04:57:21;93136.06;;;5.41;56.40
45793;BME280;31495;42.740;22.908;2023-04-29T04:58:20;93158.97;;;5.57;56.74
45793;BME280;31495;42.740;22.908;2023-04-29T04:59:20;93155.00;;;5.55;56.65
45793;BME280;31495;42.740;22.908;2023-04-29T05:00:19;93159.44;;;5.61;57.54
45793;BME280;31495;42.740;22.908;2023-04-29T05:01:19;93155.88;;;5.62;58.07
45793;BME280;31495;42.740;22.908;2023-04-29T05:02:19;93144.56;;;5.56;57.81
45793;BME280;31495;42.740;22.908;2023-04-29T05:03:19;93125.88;;;5.47;56.34
45793;BME280;31495;42.740;22.908;2023-04-29T05:04:18;93126.06;;;5.46;56.47
45793;BME280;31495;42.740;22.908;2023-04-29T05:05:18;93127.13;;;5.51;56.39
45793;BME280;31495;42.740;22.908;2023-04-29T05:06:17;93153.03;;;5.71;56.26
45793;BME280;31495;42.740;22.908;2023-04-29T05:07:17;93107.75;;;5.49;55.70
45793;BME280;31495;42.740;22.908;2023-04-29T05:08:16;93133.66;;;5.69;55.64
45793;BME280;31495;42.740;22.908;2023-04-29T05:09:16;93144.28;;;5.81;56.09
45793;BME280;31495;42.740;22.908;2023-04-29T05:10:16;93137.19;;;5.83;56.23
45793;BME280;31495;42.740;22.908;2023-04-29T05:11:16;93101.88;;;5.70;56.13
45793;BME280;31495;42.740;22.908;2023-04-29T05:12:16;93141.16;;;6.00;55.27
45793;BME280;31495;42.740;22.908;2023-04-29T05:13:17;93056.59;;;5.47;55.13
45793;BME280;31495;42.740;22.908;2023-04-29T05:14:19;93042.31;;;5.38;55.24
45793;BME280;31495;42.740;22.908;2023-04-29T05:15:21;93084.41;;;5.80;55.15
45793;BME280;31495;42.740;22.908;2023-04-29T05:16:21;93077.56;;;5.87;54.50
45793;BME280;31495;42.740;22.908;2023-04-29T05:17:20;93079.09;;;5.82;54.50
45793;BME280;31495;42.740;22.908;2023-04-29T05:18:20;93131.44;;;6.17;54.38
45793;BME280;31495;42.740;22.908;2023-04-29T05:19:19;93073.16;;;5.81;54.69
45793;BME280;31495;42.740;22.908;2023-04-29T05:20:22;93133.72;;;6.27;55.17
45793;BME280;31495;42.740;22.908;2023-04-29T05:21:21;93054.41;;;5.81;55.31
45793;BME280;31495;42.740;22.908;2023-04-29T05:22:21;93062.78;;;5.89;55.11
45793;BME280;31495;42.740;22.908;2023-04-29T05:23:20;93066.69;;;6.00;54.93
45793;BME280;31495;42.740;22.908;2023-04-29T05:24:21;93119.38;;;6.39;54.70
45793;BME280;31495;42.740;22.908;2023-04-29T05:25:23;93121.28;;;6.52;54.59
45793;BME280;31495;42.740;22.908;2023-04-29T05:26:23;93088.94;;;6.36;54.21
45793;BME280;31495;42.740;22.908;2023-04-29T05:27:22;93072.03;;;6.27;54.20
45793;BME280;31495;42.740;22.908;2023-04-29T05:28:22;93008.50;;;5.93;54.70
45793;BME280;31495;42.740;22.908;2023-04-29T05:29:21;93049.09;;;6.25;54.53
45793;BME280;31495;42.740;22.908;2023-04-29T05:30:21;93063.88;;;6.45;54.24
45793;BME280;31495;42.740;22.908;2023-04-29T05:31:21;93097.31;;;6.73;53.88
45793;BME280;31495;42.740;22.908;2023-04-29T05:32:21;93110.03;;;6.81;53.39
45793;BME280;31495;42.740;22.908;2023-04-29T05:33:20;93114.22;;;6.83;53.04